sensor_id;sensor_type;location;lat;lon;timestamp;temperature;humidity
9564;DHT22;4820;50.870;4.702;2022-09-13T00:00:37;18.70;99.90
9564;DHT22;4820;50.870;4.702;2022-09-13T00:03:03;18.70;99.90
9564;DHT22;4820;50.870;4.702;2022-09-13T00:05:30;18.70;99.90
9564;DHT22;4820;50.870;4.702;2022-09-13T00:07:57;18.60;99.90
9564;DHT22;4820;50.870;4.702;2022-09-13T00:10:23;18.60;99.90
9564;DHT22;4820;50.870;4.702;2022-09-13T00:12:49;18.50;99.90
9564;DHT22;4820;50.870;4.702;2022-09-13T00:15:15;18.60;99.90
9564;DHT22;4820;50.870;4.702;2022-09-13T00:17:41;18.50;99.90
9564;DHT22;4820;50.870;4.702;2022-09-13T00:20:07;18.50;99.90
9564;DHT22;4820;50.870;4.702;2022-09-13T00:22:33;18.50;99.90
9564;DHT22;4820;50.870;4.702;2022-09-13T00:24:59;18.50;99.90
9564;DHT22;4820;50.870;4.702;2022-09-13T00:27:24;18.50;99.90
9564;DHT22;4820;50.870;4.702;2022-09-13T00:29:50;18.50;99.90
9564;DHT22;4820;50.870;4.702;2022-09-13T00:32:16;18.50;99.90
9564;DHT22;4820;50.870;4.702;2022-09-13T00:34:42;18.50;99.90
9564;DHT22;4820;50.870;4.702;2022-09-13T00:37:08;18.50;99.90
9564;DHT22;4820;50.870;4.702;2022-09-13T00:39:35;18.40;99.90
9564;DHT22;4820;50.870;4.702;2022-09-13T00:42:01;18.40;99.90
9564;DHT22;4820;50.870;4.702;2022-09-13T00:47:19;18.40;99.90
9564;DHT22;4820;50.870;4.702;2022-09-13T00:49:46;18.30;99.90
9564;DHT22;4820;50.870;4.702;2022-09-13T00:52:15;18.30;99.90
9564;DHT22;4820;50.870;4.702;2022-09-13T00:54:50;18.30;99.90
9564;DHT22;4820;50.870;4.702;2022-09-13T00:57:19;18.30;99.90
9564;DHT22;4820;50.870;4.702;2022-09-13T00:59:57;18.30;99.90
9564;DHT22;4820;50.870;4.702;2022-09-13T01:02:24;18.30;99.90
9564;DHT22;4820;50.870;4.702;2022-09-13T01:04:50;18.30;99.90
9564;DHT22;4820;50.870;4.702;2022-09-13T01:07:16;18.30;99.90
9564;DHT22;4820;50.870;4.702;2022-09-13T01:09:44;18.40;99.90
9564;DHT22;4820;50.870;4.702;2022-09-13T01:12:45;18.40;99.90
9564;DHT22;4820;50.870;4.702;2022-09-13T01:15:14;18.40;99.90
9564;DHT22;4820;50.870;4.702;2022-09-13T01:17:40;18.40;99.90
9564;DHT22;4820;50.870;4.702;2022-09-13T01:20:07;18.40;99.90
9564;DHT22;4820;50.870;4.702;2022-09-13T01:31:02;18.50;99.90
9564;DHT22;4820;50.870;4.702;2022-09-13T01:33:43;18.50;99.90
9564;DHT22;4820;50.870;4.702;2022-09-13T01:36:41;18.50;99.90
9564;DHT22;4820;50.870;4.702;2022-09-13T01:39:15;18.50;99.90
9564;DHT22;4820;50.870;4.702;2022-09-13T01:42:17;18.30;99.90
9564;DHT22;4820;50.870;4.702;2022-09-13T01:47:56;18.40;99.90
9564;DHT22;4820;50.870;4.702;2022-09-13T01:50:50;18.50;99.90
9564;DHT22;4820;50.870;4.702;2022-09-13T01:53:46;18.50;99.90
9564;DHT22;4820;50.870;4.702;2022-09-13T01:56:28;18.50;99.90
9564;DHT22;4820;50.870;4.702;2022-09-13T01:59:02;18.50;99.90
9564;DHT22;4820;50.870;4.702;2022-09-13T02:01:40;18.50;99.90
9564;DHT22;4820;50.870;4.702;2022-09-13T02:04:18;18.50;99.90
9564;DHT22;4820;50.870;4.702;2022-09-13T02:06:50;18.50;99.90
9564;DHT22;4820;50.870;4.702;2022-09-13T02:09:23;18.40;99.90
9564;DHT22;4820;50.870;4.702;2022-09-13T02:11:55;18.50;99.90
9564;DHT22;4820;50.870;4.702;2022-09-13T02:14:29;18.50;99.90
9564;DHT22;4820;50.870;4.702;2022-09-13T02:17:09;18.50;99.90
9564;DHT22;4820;50.870;4.702;2022-09-13T02:19:40;18.40;99.90
9564;DHT22;4820;50.870;4.702;2022-09-13T02:22:10;18.40;99.90
9564;DHT22;4820;50.870;4.702;2022-09-13T02:24:47;18.50;99.90
9564;DHT22;4820;50.870;4.702;2022-09-13T02:27:19;18.40;99.90
9564;DHT22;4820;50.870;4.702;2022-09-13T02:29:49;18.40;99.90
9564;DHT22;4820;50.870;4.702;2022-09-13T02:34:49;18.30;99.90
9564;DHT22;4820;50.870;4.702;2022-09-13T02:37:17;18.40;99.90
9564;DHT22;4820;50.870;4.702;2022-09-13T02:39:47;18.30;99.90
9564;DHT22;4820;50.870;4.702;2022-09-13T02:42:30;18.30;99.90
9564;DHT22;4820;50.870;4.702;2022-09-13T02:44:58;18.30;99.90
9564;DHT22;4820;50.870;4.702;2022-09-13T03:01:20;18.30;99.90
9564;DHT22;4820;50.870;4.702;2022-09-13T03:03:46;18.30;99.90
9564;DHT22;4820;50.870;4.702;2022-09-13T03:06:19;18.30;99.90
9564;DHT22;4820;50.870;4.702;2022-09-13T03:08:46;18.30;99.90
9564;DHT22;4820;50.870;4.702;2022-09-13T03:14:15;18.30;99.90
9564;DHT22;4820;50.870;4.702;2022-09-13T03:30:29;18.20;99.90
9564;DHT22;4820;50.870;4.702;2022-09-13T03:35:51;18.20;99.90
9564;DHT22;4820;50.870;4.702;2022-09-13T03:38:26;18.10;99.90
9564;DHT22;4820;50.870;4.702;2022-09-13T03:41:08;18.20;99.90
9564;DHT22;4820;50.870;4.702;2022-09-13T03:46:25;18.30;99.90
9564;DHT22;4820;50.870;4.702;2022-09-13T03:48:52;18.30;99.90
9564;DHT22;4820;50.870;4.702;2022-09-13T03:51:18;18.40;99.90
9564;DHT22;4820;50.870;4.702;2022-09-13T03:53:51;18.40;99.90
9564;DHT22;4820;50.870;4.702;2022-09-13T03:56:19;18.50;99.90
9564;DHT22;4820;50.870;4.702;2022-09-13T03:58:46;18.50;99.90
9564;DHT22;4820;50.870;4.702;2022-09-13T04:01:12;18.60;99.90
9564;DHT22;4820;50.870;4.702;2022-09-13T04:03:39;18.60;99.90
9564;DHT22;4820;50.870;4.702;2022-09-13T04:06:05;18.60;99.90
9564;DHT22;4820;50.870;4.702;2022-09-13T04:08:31;18.60;99.90
9564;DHT22;4820;50.870;4.702;2022-09-13T04:10:58;18.60;99.90
9564;DHT22;4820;50.870;4.702;2022-09-13T04:13:23;18.50;99.90
9564;DHT22;4820;50.870;4.702;2022-09-13T04:15:49;18.50;99.90
9564;DHT22;4820;50.870;4.702;2022-09-13T04:18:15;18.40;99.90
9564;DHT22;4820;50.870;4.702;2022-09-13T04:20:41;18.40;99.90
9564;DHT22;4820;50.870;4.702;2022-09-13T04:23:08;18.40;99.90
9564;DHT22;4820;50.870;4.702;2022-09-13T04:25:37;18.40;99.90
9564;DHT22;4820;50.870;4.702;2022-09-13T04:28:03;18.40;99.90
9564;DHT22;4820;50.870;4.702;2022-09-13T04:30:29;18.50;99.90
9564;DHT22;4820;50.870;4.702;2022-09-13T04:32:55;18.50;99.90
9564;DHT22;4820;50.870;4.702;2022-09-13T04:35:22;18.60;99.90
9564;DHT22;4820;50.870;4.702;2022-09-13T04:37:48;18.60;99.90
9564;DHT22;4820;50.870;4.702;2022-09-13T04:40:14;18.70;99.90
9564;DHT22;4820;50.870;4.702;2022-09-13T04:42:39;18.70;99.90
9564;DHT22;4820;50.870;4.702;2022-09-13T04:45:05;18.70;99.90
9564;DHT22;4820;50.870;4.702;2022-09-13T04:47:33;18.70;99.90
9564;DHT22;4820;50.870;4.702;2022-09-13T04:49:59;18.70;99.90
9564;DHT22;4820;50.870;4.702;2022-09-13T04:52:24;18.70;99.90
9564;DHT22;4820;50.870;4.702;2022-09-13T04:54:50;18.70;99.90
9564;DHT22;4820;50.870;4.702;2022-09-13T04:57:16;18.70;99.90
9564;DHT22;4820;50.870;4.702;2022-09-13T04:59:42;18.70;99.90
9564;DHT22;4820;50.870;4.702;2022-09-13T05:02:08;18.70;99.90
9564;DHT22;4820;50.870;4.702;2022-09-13T05:04:34;18.70;99.90
9564;DHT22;4820;50.870;4.702;2022-09-13T05:06:59;18.70;99.90
9564;DHT22;4820;50.870;4.702;2022-09-13T05:09:25;18.70;99.90
9564;DHT22;4820;50.870;4.702;2022-09-13T05:11:51;18.80;99.90
9564;DHT22;4820;50.870;4.702;2022-09-13T05:14:17;18.80;99.90
9564;DHT22;4820;50.870;4.702;2022-09-13T05:16:43;18.80;99.90
9564;DHT22;4820;50.870;4.702;2022-09-13T05:19:11;18.70;99.90
9564;DHT22;4820;50.870;4.702;2022-09-13T05:21:37;18.70;99.90
9564;DHT22;4820;50.870;4.702;2022-09-13T05:24:03;18.70;99.90
9564;DHT22;4820;50.870;4.702;2022-09-13T05:26:29;18.60;99.90
9564;DHT22;4820;50.870;4.702;2022-09-13T05:28:56;18.60;99.90
9564;DHT22;4820;50.870;4.702;2022-09-13T05:31:28;18.60;99.90
9564;DHT22;4820;50.870;4.702;2022-09-13T05:34:03;18.60;99.90
9564;DHT22;4820;50.870;4.702;2022-09-13T05:36:30;18.60;99.90
9564;DHT22;4820;50.870;4.702;2022-09-13T05:38:56;18.50;99.90
9564;DHT22;4820;50.870;4.702;2022-09-13T05:41:22;18.50;99.90
9564;DHT22;4820;50.870;4.702;2022-09-13T05:43:48;18.50;99.90
9564;DHT22;4820;50.870;4.702;2022-09-13T05:46:16;18.50;99.90
9564;DHT22;4820;50.870;4.702;2022-09-13T05:48:42;18.40;99.90
9564;DHT22;4820;50.870;4.702;2022-09-13T05:51:14;18.40;99.90
9564;DHT22;4820;50.870;4.702;2022-09-13T05:53:42;18.40;99.90
9564;DHT22;4820;50.870;4.702;2022-09-13T05:56:10;18.50;99.90
9564;DHT22;4820;50.870;4.702;2022-09-13T05:58:41;18.50;99.90
9564;DHT22;4820;50.870;4.702;2022-09-13T06:01:08;18.50;99.90
9564;DHT22;4820;50.870;4.702;2022-09-13T06:03:34;18.50;99.90
9564;DHT22;4820;50.870;4.702;2022-09-13T06:06:01;18.50;99.90
9564;DHT22;4820;50.870;4.702;2022-09-13T06:08:29;18.50;99.90
9564;DHT22;4820;50.870;4.702;2022-09-13T06:11:06;18.50;99.90
9564;DHT22;4820;50.870;4.702;2022-09-13T06:13:33;18.50;99.90
9564;DHT22;4820;50.870;4.702;2022-09-13T06:16:00;18.50;99.90
9564;DHT22;4820;50.870;4.702;2022-09-13T06:18:26;18.60;99.90
9564;DHT22;4820;50.870;4.702;2022-09-13T06:21:07;18.60;99.90
9564;DHT22;4820;50.870;4.702;2022-09-13T06:23:33;18.70;99.90
9564;DHT22;4820;50.870;4.702;2022-09-13T06:26:06;18.60;99.90
9564;DHT22;4820;50.870;4.702;2022-09-13T06:28:33;18.70;99.90
9564;DHT22;4820;50.870;4.702;2022-09-13T06:31:18;18.70;99.90
9564;DHT22;4820;50.870;4.702;2022-09-13T06:33:45;18.70;99.90
9564;DHT22;4820;50.870;4.702;2022-09-13T06:36:16;18.70;99.90
9564;DHT22;4820;50.870;4.702;2022-09-13T06:38:43;18.70;99.90
9564;DHT22;4820;50.870;4.702;2022-09-13T06:41:11;18.80;99.90
9564;DHT22;4820;50.870;4.702;2022-09-13T06:43:37;18.80;99.90
9564;DHT22;4820;50.870;4.702;2022-09-13T06:46:08;18.80;99.90
9564;DHT22;4820;50.870;4.702;2022-09-13T06:48:36;18.90;99.90
9564;DHT22;4820;50.870;4.702;2022-09-13T06:51:05;18.90;99.90
9564;DHT22;4820;50.870;4.702;2022-09-13T06:53:33;19.00;99.90
9564;DHT22;4820;50.870;4.702;2022-09-13T06:56:07;19.00;99.90
9564;DHT22;4820;50.870;4.702;2022-09-13T06:58:35;19.10;99.90
9564;DHT22;4820;50.870;4.702;2022-09-13T07:03:39;19.20;99.90
9564;DHT22;4820;50.870;4.702;2022-09-13T07:06:19;19.30;99.90
9564;DHT22;4820;50.870;4.702;2022-09-13T07:08:47;19.30;99.90
9564;DHT22;4820;50.870;4.702;2022-09-13T07:11:15;19.30;99.90
9564;DHT22;4820;50.870;4.702;2022-09-13T07:13:49;19.40;99.90
9564;DHT22;4820;50.870;4.702;2022-09-13T07:16:16;19.50;99.90
9564;DHT22;4820;50.870;4.702;2022-09-13T07:18:42;19.60;99.90
9564;DHT22;4820;50.870;4.702;2022-09-13T07:21:09;19.60;99.90
9564;DHT22;4820;50.870;4.702;2022-09-13T07:23:37;19.70;99.90
9564;DHT22;4820;50.870;4.702;2022-09-13T07:26:04;19.80;99.90
9564;DHT22;4820;50.870;4.702;2022-09-13T07:28:38;19.80;99.90
9564;DHT22;4820;50.870;4.702;2022-09-13T07:31:25;19.90;99.90
9564;DHT22;4820;50.870;4.702;2022-09-13T07:33:59;20.00;99.90
9564;DHT22;4820;50.870;4.702;2022-09-13T07:36:28;20.20;99.90
9564;DHT22;4820;50.870;4.702;2022-09-13T07:38:54;20.30;99.90
9564;DHT22;4820;50.870;4.702;2022-09-13T07:41:22;20.50;99.90
9564;DHT22;4820;50.870;4.702;2022-09-13T07:43:48;20.50;99.90
9564;DHT22;4820;50.870;4.702;2022-09-13T07:46:20;20.50;99.90
9564;DHT22;4820;50.870;4.702;2022-09-13T07:48:46;20.50;99.90
9564;DHT22;4820;50.870;4.702;2022-09-13T07:51:17;20.50;99.90
9564;DHT22;4820;50.870;4.702;2022-09-13T07:53:45;20.50;99.90
9564;DHT22;4820;50.870;4.702;2022-09-13T07:56:17;20.60;99.90
9564;DHT22;4820;50.870;4.702;2022-09-13T07:58:44;20.70;99.90
9564;DHT22;4820;50.870;4.702;2022-09-13T08:01:20;20.70;99.90
9564;DHT22;4820;50.870;4.702;2022-09-13T08:03:51;20.70;99.90
9564;DHT22;4820;50.870;4.702;2022-09-13T08:06:17;20.70;99.90
9564;DHT22;4820;50.870;4.702;2022-09-13T08:08:43;20.70;99.90
9564;DHT22;4820;50.870;4.702;2022-09-13T08:11:20;20.70;99.90
9564;DHT22;4820;50.870;4.702;2022-09-13T08:13:48;20.70;99.90
9564;DHT22;4820;50.870;4.702;2022-09-13T08:16:16;20.70;99.90
9564;DHT22;4820;50.870;4.702;2022-09-13T08:18:47;20.80;99.90
9564;DHT22;4820;50.870;4.702;2022-09-13T08:21:13;20.90;99.90
9564;DHT22;4820;50.870;4.702;2022-09-13T08:23:40;20.90;99.90
9564;DHT22;4820;50.870;4.702;2022-09-13T08:26:06;21.00;99.90
9564;DHT22;4820;50.870;4.702;2022-09-13T08:28:35;21.10;99.90
9564;DHT22;4820;50.870;4.702;2022-09-13T08:33:30;21.20;99.90
9564;DHT22;4820;50.870;4.702;2022-09-13T08:35:57;21.30;99.90
9564;DHT22;4820;50.870;4.702;2022-09-13T08:38:24;21.30;99.90
9564;DHT22;4820;50.870;4.702;2022-09-13T08:40:54;21.40;99.90
9564;DHT22;4820;50.870;4.702;2022-09-13T08:43:28;21.40;99.90
9564;DHT22;4820;50.870;4.702;2022-09-13T08:46:01;21.40;99.90
9564;DHT22;4820;50.870;4.702;2022-09-13T08:48:35;21.40;99.90
9564;DHT22;4820;50.870;4.702;2022-09-13T08:51:06;21.40;99.90
9564;DHT22;4820;50.870;4.702;2022-09-13T08:53:43;21.50;99.90
9564;DHT22;4820;50.870;4.702;2022-09-13T08:56:12;21.50;99.90
9564;DHT22;4820;50.870;4.702;2022-09-13T08:58:54;21.60;99.90
9564;DHT22;4820;50.870;4.702;2022-09-13T09:06:28;21.80;99.90
9564;DHT22;4820;50.870;4.702;2022-09-13T09:09:03;22.00;99.90
9564;DHT22;4820;50.870;4.702;2022-09-13T09:14:31;22.30;99.90
9564;DHT22;4820;50.870;4.702;2022-09-13T09:17:04;22.50;99.90
9564;DHT22;4820;50.870;4.702;2022-09-13T09:22:38;22.80;99.90
9564;DHT22;4820;50.870;4.702;2022-09-13T09:25:07;22.80;99.90
9564;DHT22;4820;50.870;4.702;2022-09-13T09:27:35;22.70;99.90
9564;DHT22;4820;50.870;4.702;2022-09-13T09:30:01;22.70;99.90
9564;DHT22;4820;50.870;4.702;2022-09-13T09:38:37;22.80;99.90
9564;DHT22;4820;50.870;4.702;2022-09-13T09:41:34;22.90;99.90
9564;DHT22;4820;50.870;4.702;2022-09-13T09:46:53;23.20;99.90
9564;DHT22;4820;50.870;4.702;2022-09-13T09:52:17;23.50;99.90
9564;DHT22;4820;50.870;4.702;2022-09-13T09:54:43;23.60;99.90
9564;DHT22;4820;50.870;4.702;2022-09-13T09:57:11;23.80;99.90
9564;DHT22;4820;50.870;4.702;2022-09-13T09:59:37;24.00;99.90
9564;DHT22;4820;50.870;4.702;2022-09-13T10:02:17;24.20;99.90
9564;DHT22;4820;50.870;4.702;2022-09-13T10:04:54;24.30;99.90
9564;DHT22;4820;50.870;4.702;2022-09-13T10:07:30;24.30;99.90
9564;DHT22;4820;50.870;4.702;2022-09-13T10:10:40;24.40;99.90
9564;DHT22;4820;50.870;4.702;2022-09-13T10:13:16;24.40;99.90
9564;DHT22;4820;50.870;4.702;2022-09-13T10:15:53;24.30;99.90
9564;DHT22;4820;50.870;4.702;2022-09-13T10:18:21;24.30;99.90
9564;DHT22;4820;50.870;4.702;2022-09-13T10:23:29;24.40;99.90
9564;DHT22;4820;50.870;4.702;2022-09-13T10:28:26;24.50;99.90
9564;DHT22;4820;50.870;4.702;2022-09-13T10:31:07;24.60;99.90
9564;DHT22;4820;50.870;4.702;2022-09-13T10:36:22;24.80;99.90
9564;DHT22;4820;50.870;4.702;2022-09-13T10:39:04;25.00;99.90
9564;DHT22;4820;50.870;4.702;2022-09-13T10:41:36;25.00;99.90
9564;DHT22;4820;50.870;4.702;2022-09-13T10:44:08;25.00;99.90
9564;DHT22;4820;50.870;4.702;2022-09-13T10:46:47;24.90;99.90
9564;DHT22;4820;50.870;4.702;2022-09-13T10:49:45;24.90;99.90
9564;DHT22;4820;50.870;4.702;2022-09-13T10:52:33;24.80;99.90
9564;DHT22;4820;50.870;4.702;2022-09-13T10:57:47;24.80;99.90
9564;DHT22;4820;50.870;4.702;2022-09-13T11:00:16;24.90;99.90
9564;DHT22;4820;50.870;4.702;2022-09-13T11:03:10;25.10;99.90
9564;DHT22;4820;50.870;4.702;2022-09-13T11:05:56;25.20;99.90
9564;DHT22;4820;50.870;4.702;2022-09-13T11:08:44;25.10;99.90
9564;DHT22;4820;50.870;4.702;2022-09-13T11:17:15;25.00;99.90
9564;DHT22;4820;50.870;4.702;2022-09-13T11:20:14;25.20;99.90
9564;DHT22;4820;50.870;4.702;2022-09-13T11:34:08;25.40;99.90
9564;DHT22;4820;50.870;4.702;2022-09-13T11:37:01;25.30;99.90
9564;DHT22;4820;50.870;4.702;2022-09-13T11:39:38;25.00;99.90
9564;DHT22;4820;50.870;4.702;2022-09-13T11:53:41;25.40;99.90
9564;DHT22;4820;50.870;4.702;2022-09-13T11:56:36;25.60;99.90
9564;DHT22;4820;50.870;4.702;2022-09-13T12:01:44;25.60;99.90
9564;DHT22;4820;50.870;4.702;2022-09-13T12:04:21;25.50;99.90
9564;DHT22;4820;50.870;4.702;2022-09-13T12:06:56;25.50;99.90
9564;DHT22;4820;50.870;4.702;2022-09-13T12:09:33;25.70;99.90
9564;DHT22;4820;50.870;4.702;2022-09-13T12:12:04;25.80;99.90
9564;DHT22;4820;50.870;4.702;2022-09-13T12:15:26;25.80;99.90
9564;DHT22;4820;50.870;4.702;2022-09-13T12:17:38;25.80;99.90
9564;DHT22;4820;50.870;4.702;2022-09-13T12:20:14;25.80;99.90
9564;DHT22;4820;50.870;4.702;2022-09-13T12:22:44;25.70;99.90
9564;DHT22;4820;50.870;4.702;2022-09-13T12:25:23;25.80;99.90
9564;DHT22;4820;50.870;4.702;2022-09-13T12:28:03;25.90;99.90
9564;DHT22;4820;50.870;4.702;2022-09-13T12:33:44;25.80;99.90
9564;DHT22;4820;50.870;4.702;2022-09-13T12:36:35;25.70;99.90
9564;DHT22;4820;50.870;4.702;2022-09-13T12:48:04;25.80;99.90
9564;DHT22;4820;50.870;4.702;2022-09-13T12:50:42;25.80;99.90
9564;DHT22;4820;50.870;4.702;2022-09-13T12:53:46;25.60;99.90
9564;DHT22;4820;50.870;4.702;2022-09-13T13:02:18;25.10;99.90
9564;DHT22;4820;50.870;4.702;2022-09-13T13:04:50;25.10;99.90
9564;DHT22;4820;50.870;4.702;2022-09-13T13:07:21;25.00;99.90
9564;DHT22;4820;50.870;4.702;2022-09-13T13:09:50;25.00;99.90
9564;DHT22;4820;50.870;4.702;2022-09-13T13:14:52;24.90;99.90
9564;DHT22;4820;50.870;4.702;2022-09-13T13:17:38;24.80;99.90
9564;DHT22;4820;50.870;4.702;2022-09-13T13:41:59;24.50;99.90
9564;DHT22;4820;50.870;4.702;2022-09-13T13:49:44;24.50;99.90
9564;DHT22;4820;50.870;4.702;2022-09-13T13:58:00;24.50;99.90
9564;DHT22;4820;50.870;4.702;2022-09-13T14:00:29;24.50;99.90
9564;DHT22;4820;50.870;4.702;2022-09-13T14:05:31;24.40;99.90
9564;DHT22;4820;50.870;4.702;2022-09-13T14:11:15;24.50;99.90
9564;DHT22;4820;50.870;4.702;2022-09-13T14:16:47;24.30;99.90
9564;DHT22;4820;50.870;4.702;2022-09-13T14:19:21;24.30;99.90
9564;DHT22;4820;50.870;4.702;2022-09-13T14:22:22;24.30;99.90
9564;DHT22;4820;50.870;4.702;2022-09-13T14:24:52;24.20;99.90
9564;DHT22;4820;50.870;4.702;2022-09-13T14:29:51;24.10;99.90
9564;DHT22;4820;50.870;4.702;2022-09-13T14:32:20;24.00;99.90
9564;DHT22;4820;50.870;4.702;2022-09-13T14:37:36;23.80;99.90
9564;DHT22;4820;50.870;4.702;2022-09-13T14:40:22;23.70;99.90
9564;DHT22;4820;50.870;4.702;2022-09-13T14:42:50;23.50;99.90
9564;DHT22;4820;50.870;4.702;2022-09-13T14:50:24;23.20;99.90
9564;DHT22;4820;50.870;4.702;2022-09-13T14:52:54;23.10;99.90
9564;DHT22;4820;50.870;4.702;2022-09-13T14:55:25;23.00;99.90
9564;DHT22;4820;50.870;4.702;2022-09-13T14:57:59;23.00;99.90
9564;DHT22;4820;50.870;4.702;2022-09-13T15:00:30;22.90;99.90
9564;DHT22;4820;50.870;4.702;2022-09-13T15:03:10;22.80;99.90
9564;DHT22;4820;50.870;4.702;2022-09-13T15:05:38;22.80;99.90
9564;DHT22;4820;50.870;4.702;2022-09-13T15:11:03;22.60;99.90
9564;DHT22;4820;50.870;4.702;2022-09-13T15:13:30;22.50;99.90
9564;DHT22;4820;50.870;4.702;2022-09-13T15:15:57;22.50;99.90
9564;DHT22;4820;50.870;4.702;2022-09-13T15:18:28;22.50;99.90
9564;DHT22;4820;50.870;4.702;2022-09-13T15:21:02;22.50;99.90
9564;DHT22;4820;50.870;4.702;2022-09-13T15:23:36;22.60;99.90
9564;DHT22;4820;50.870;4.702;2022-09-13T15:26:11;22.70;99.90
9564;DHT22;4820;50.870;4.702;2022-09-13T15:31:06;22.90;99.90
9564;DHT22;4820;50.870;4.702;2022-09-13T15:33:33;23.00;99.90
9564;DHT22;4820;50.870;4.702;2022-09-13T15:36:32;23.00;99.90
9564;DHT22;4820;50.870;4.702;2022-09-13T15:41:40;22.80;99.90
9564;DHT22;4820;50.870;4.702;2022-09-13T15:44:15;22.80;99.90
9564;DHT22;4820;50.870;4.702;2022-09-13T15:46:52;22.70;99.90
9564;DHT22;4820;50.870;4.702;2022-09-13T15:49:24;22.60;99.90
9564;DHT22;4820;50.870;4.702;2022-09-13T15:52:00;22.50;99.90
9564;DHT22;4820;50.870;4.702;2022-09-13T15:54:39;22.50;99.90
9564;DHT22;4820;50.870;4.702;2022-09-13T15:57:12;22.60;99.90
9564;DHT22;4820;50.870;4.702;2022-09-13T15:59:43;22.60;99.90
9564;DHT22;4820;50.870;4.702;2022-09-13T16:02:35;22.70;99.90
9564;DHT22;4820;50.870;4.702;2022-09-13T16:05:01;22.70;99.90
9564;DHT22;4820;50.870;4.702;2022-09-13T16:07:26;22.70;99.90
9564;DHT22;4820;50.870;4.702;2022-09-13T16:09:52;22.70;99.90
9564;DHT22;4820;50.870;4.702;2022-09-13T16:12:19;22.60;99.90
9564;DHT22;4820;50.870;4.702;2022-09-13T16:14:49;22.60;99.90
9564;DHT22;4820;50.870;4.702;2022-09-13T16:17:25;22.50;99.90
9564;DHT22;4820;50.870;4.702;2022-09-13T16:19:53;22.50;99.90
9564;DHT22;4820;50.870;4.702;2022-09-13T16:22:19;22.50;99.90
9564;DHT22;4820;50.870;4.702;2022-09-13T16:24:45;22.50;99.90
9564;DHT22;4820;50.870;4.702;2022-09-13T16:27:12;22.50;99.90
9564;DHT22;4820;50.870;4.702;2022-09-13T16:29:39;22.50;99.90
9564;DHT22;4820;50.870;4.702;2022-09-13T16:32:05;22.50;99.90
9564;DHT22;4820;50.870;4.702;2022-09-13T16:34:30;22.50;99.90
9564;DHT22;4820;50.870;4.702;2022-09-13T16:36:56;22.40;99.90
9564;DHT22;4820;50.870;4.702;2022-09-13T16:39:22;22.40;99.90
9564;DHT22;4820;50.870;4.702;2022-09-13T16:41:48;22.30;99.90
9564;DHT22;4820;50.870;4.702;2022-09-13T16:44:16;22.30;99.90
9564;DHT22;4820;50.870;4.702;2022-09-13T16:46:43;22.20;99.90
9564;DHT22;4820;50.870;4.702;2022-09-13T16:49:11;22.20;99.90
9564;DHT22;4820;50.870;4.702;2022-09-13T16:51:37;22.20;99.90
9564;DHT22;4820;50.870;4.702;2022-09-13T16:54:03;22.20;99.90
9564;DHT22;4820;50.870;4.702;2022-09-13T16:56:29;22.10;99.90
9564;DHT22;4820;50.870;4.702;2022-09-13T16:58:55;22.10;99.90
9564;DHT22;4820;50.870;4.702;2022-09-13T17:01:23;22.00;99.90
9564;DHT22;4820;50.870;4.702;2022-09-13T17:03:50;21.90;99.90
9564;DHT22;4820;50.870;4.702;2022-09-13T17:06:17;21.80;99.90
9564;DHT22;4820;50.870;4.702;2022-09-13T17:08:55;21.70;99.90
9564;DHT22;4820;50.870;4.702;2022-09-13T17:11:24;21.50;99.90
9564;DHT22;4820;50.870;4.702;2022-09-13T17:13:50;21.40;99.90
9564;DHT22;4820;50.870;4.702;2022-09-13T17:18:51;21.30;99.90
9564;DHT22;4820;50.870;4.702;2022-09-13T17:21:17;21.20;99.90
9564;DHT22;4820;50.870;4.702;2022-09-13T17:23:44;21.10;99.90
9564;DHT22;4820;50.870;4.702;2022-09-13T17:26:09;21.00;99.90
9564;DHT22;4820;50.870;4.702;2022-09-13T17:28:35;20.80;99.90
9564;DHT22;4820;50.870;4.702;2022-09-13T17:31:01;20.70;99.90
9564;DHT22;4820;50.870;4.702;2022-09-13T17:33:28;20.60;99.90
9564;DHT22;4820;50.870;4.702;2022-09-13T17:36:03;20.60;99.90
9564;DHT22;4820;50.870;4.702;2022-09-13T17:38:29;20.50;99.90
9564;DHT22;4820;50.870;4.702;2022-09-13T17:41:06;20.40;99.90
9564;DHT22;4820;50.870;4.702;2022-09-13T17:43:34;20.40;99.90
9564;DHT22;4820;50.870;4.702;2022-09-13T17:46:14;20.30;99.90
9564;DHT22;4820;50.870;4.702;2022-09-13T17:48:41;20.30;99.90
9564;DHT22;4820;50.870;4.702;2022-09-13T17:51:10;20.30;99.90
9564;DHT22;4820;50.870;4.702;2022-09-13T17:53:41;20.40;99.90
9564;DHT22;4820;50.870;4.702;2022-09-13T17:56:08;20.40;99.90
9564;DHT22;4820;50.870;4.702;2022-09-13T17:58:34;20.30;99.90
9564;DHT22;4820;50.870;4.702;2022-09-13T18:01:05;20.20;99.90
9564;DHT22;4820;50.870;4.702;2022-09-13T18:03:31;20.10;99.90
9564;DHT22;4820;50.870;4.702;2022-09-13T18:06:00;20.20;99.90
9564;DHT22;4820;50.870;4.702;2022-09-13T18:08:27;20.20;99.90
9564;DHT22;4820;50.870;4.702;2022-09-13T18:10:53;20.10;99.90
9564;DHT22;4820;50.870;4.702;2022-09-13T18:13:20;20.00;99.90
9564;DHT22;4820;50.870;4.702;2022-09-13T18:16:03;20.00;99.90
9564;DHT22;4820;50.870;4.702;2022-09-13T18:18:29;19.90;99.90
9564;DHT22;4820;50.870;4.702;2022-09-13T18:20:56;19.90;99.90
9564;DHT22;4820;50.870;4.702;2022-09-13T18:23:22;19.90;99.90
9564;DHT22;4820;50.870;4.702;2022-09-13T18:26:05;19.90;99.90
9564;DHT22;4820;50.870;4.702;2022-09-13T18:28:32;19.90;99.90
9564;DHT22;4820;50.870;4.702;2022-09-13T18:31:00;20.00;99.90
9564;DHT22;4820;50.870;4.702;2022-09-13T18:33:27;19.90;99.90
9564;DHT22;4820;50.870;4.702;2022-09-13T18:38:32;19.90;99.90
9564;DHT22;4820;50.870;4.702;2022-09-13T18:43:24;19.80;99.90
9564;DHT22;4820;50.870;4.702;2022-09-13T18:45:58;19.80;99.90
9564;DHT22;4820;50.870;4.702;2022-09-13T18:48:27;19.80;99.90
9564;DHT22;4820;50.870;4.702;2022-09-13T18:50:55;19.90;99.90
9564;DHT22;4820;50.870;4.702;2022-09-13T18:53:21;19.90;99.90
9564;DHT22;4820;50.870;4.702;2022-09-13T18:55:46;19.90;99.90
9564;DHT22;4820;50.870;4.702;2022-09-13T18:58:13;20.00;99.90
9564;DHT22;4820;50.870;4.702;2022-09-13T19:00:39;20.00;99.90
9564;DHT22;4820;50.870;4.702;2022-09-13T19:03:05;20.00;99.90
9564;DHT22;4820;50.870;4.702;2022-09-13T19:05:33;20.10;99.90
9564;DHT22;4820;50.870;4.702;2022-09-13T19:07:59;20.10;99.90
9564;DHT22;4820;50.870;4.702;2022-09-13T19:10:25;20.10;99.90
9564;DHT22;4820;50.870;4.702;2022-09-13T19:12:52;20.10;99.90
9564;DHT22;4820;50.870;4.702;2022-09-13T19:15:18;20.10;99.90
9564;DHT22;4820;50.870;4.702;2022-09-13T19:17:44;20.10;99.90
9564;DHT22;4820;50.870;4.702;2022-09-13T19:20:14;20.10;99.90
9564;DHT22;4820;50.870;4.702;2022-09-13T19:22:43;20.00;99.90
9564;DHT22;4820;50.870;4.702;2022-09-13T19:25:09;19.90;99.90
9564;DHT22;4820;50.870;4.702;2022-09-13T19:27:35;19.90;99.90
9564;DHT22;4820;50.870;4.702;2022-09-13T19:30:00;19.80;99.90
9564;DHT22;4820;50.870;4.702;2022-09-13T19:32:27;19.90;99.90
9564;DHT22;4820;50.870;4.702;2022-09-13T19:34:53;19.90;99.90
9564;DHT22;4820;50.870;4.702;2022-09-13T19:37:19;19.90;99.90
9564;DHT22;4820;50.870;4.702;2022-09-13T19:39:45;19.90;99.90
9564;DHT22;4820;50.870;4.702;2022-09-13T19:42:11;19.80;99.90
9564;DHT22;4820;50.870;4.702;2022-09-13T19:44:37;19.80;99.90
9564;DHT22;4820;50.870;4.702;2022-09-13T19:47:02;19.80;99.90
9564;DHT22;4820;50.870;4.702;2022-09-13T19:49:31;19.80;99.90
9564;DHT22;4820;50.870;4.702;2022-09-13T19:51:56;19.80;99.90
9564;DHT22;4820;50.870;4.702;2022-09-13T19:54:25;19.80;99.90
9564;DHT22;4820;50.870;4.702;2022-09-13T19:56:51;19.80;99.90